createdAt,value
2023-01-13T00:02:51.649Z,2.83
2023-01-13T00:05:58.713Z,3.65
2023-01-13T00:09:03.600Z,3.50
2023-01-13T00:12:08.285Z,4.25
2023-01-13T00:15:13.441Z,3.50
2023-01-13T00:18:17.603Z,2.42
2023-01-13T00:24:28.425Z,3.63
2023-01-13T00:27:33.791Z,2.25
2023-01-13T00:30:38.498Z,2.22
2023-01-13T00:33:43.372Z,2.25
2023-01-13T00:36:47.733Z,2.20
2023-01-13T00:39:52.695Z,2.00
2023-01-13T00:43:15.370Z,3.08
2023-01-13T00:46:21.808Z,3.17
2023-01-13T00:49:26.326Z,2.88
2023-01-13T00:52:33.577Z,2.22
2023-01-13T00:55:37.986Z,2.40
2023-01-13T00:58:46.007Z,2.20
2023-01-13T01:01:50.708Z,2.95
2023-01-13T01:04:54.839Z,2.08
2023-01-13T01:07:59.030Z,1.80
2023-01-13T01:11:10.580Z,2.30
2023-01-13T01:14:15.139Z,1.73
2023-01-13T01:17:19.583Z,1.38
2023-01-13T01:20:24.166Z,3.10
2023-01-13T01:23:30.137Z,1.77
2023-01-13T01:26:34.468Z,1.50
2023-01-13T01:29:38.610Z,2.67
2023-01-13T01:32:42.800Z,2.15
2023-01-13T01:35:47.947Z,1.48
2023-01-13T01:38:52.557Z,2.08
2023-01-13T01:42:15.734Z,1.67
2023-01-13T01:45:24.501Z,1.90
2023-01-13T01:48:35.065Z,2.13
2023-01-13T01:51:56.017Z,3.25
2023-01-13T01:55:10.635Z,2.53
2023-01-13T01:58:27.163Z,3.22
2023-01-13T02:01:34.223Z,2.67
2023-01-13T02:04:42.981Z,3.22
2023-01-13T02:07:51.519Z,2.47
2023-01-13T02:10:56.163Z,3.15
2023-01-13T02:14:00.437Z,2.60
2023-01-13T02:17:30.838Z,3.28
2023-01-13T02:21:16.614Z,2.20
2023-01-13T02:25:21.080Z,2.10
2023-01-13T02:29:06.695Z,4.18
2023-01-13T02:32:29.990Z,3.65
2023-01-13T02:35:49.462Z,2.45
2023-01-13T02:40:12.846Z,2.95
2023-01-13T02:43:57.485Z,3.35
2023-01-13T02:47:25.298Z,3.88
2023-01-13T02:50:39.445Z,3.35
2023-01-13T02:53:52.247Z,4.22
2023-01-13T02:57:00.760Z,3.63
2023-01-13T03:00:07.927Z,3.90
2023-01-13T03:03:12.464Z,3.00
2023-01-13T03:06:16.896Z,4.38
2023-01-13T03:13:14.433Z,4.22
2023-01-13T03:16:43.440Z,3.08
2023-01-13T03:20:19.154Z,3.60
2023-01-13T03:23:33.252Z,5.45
2023-01-13T03:26:51.843Z,4.93
2023-01-13T03:30:24.381Z,4.72
2023-01-13T03:33:55.595Z,5.07
2023-01-13T03:37:05.788Z,4.78
2023-01-13T03:40:22.252Z,5.50
2023-01-13T03:43:59.823Z,5.32
2023-01-13T03:47:30.181Z,5.03
2023-01-13T03:50:47.534Z,5.00
2023-01-13T03:54:05.109Z,5.28
2023-01-13T03:57:13.908Z,4.57
2023-01-13T04:00:23.222Z,5.22
2023-01-13T04:03:42.311Z,5.22
2023-01-13T04:07:42.383Z,5.43
2023-01-13T04:11:11.959Z,4.65
2023-01-13T04:14:19.871Z,5.18
2023-01-13T04:17:24.695Z,4.72
2023-01-13T04:20:29.109Z,6.32
2023-01-13T04:23:34.002Z,4.90
2023-01-13T04:26:38.269Z,6.20
2023-01-13T04:29:42.684Z,5.13
2023-01-13T04:32:47.275Z,6.07
2023-01-13T04:35:52.755Z,3.88
2023-01-13T04:38:56.895Z,6.10
2023-01-13T04:42:02.495Z,4.55
2023-01-13T04:45:10.175Z,7.10
2023-01-13T04:48:14.601Z,4.93
2023-01-13T04:51:19.224Z,4.93
2023-01-13T04:54:23.662Z,6.15
2023-01-13T04:57:28.647Z,4.88
2023-01-13T05:00:33.414Z,4.28
2023-01-13T05:03:37.896Z,5.10
2023-01-13T05:06:42.597Z,4.10
2023-01-13T05:09:47.438Z,4.38
2023-01-13T05:13:10.556Z,5.13
2023-01-13T05:16:40.286Z,5.03
2023-01-13T05:20:22.850Z,4.78
2023-01-13T05:23:47.895Z,3.90
2023-01-13T05:26:55.450Z,5.05
2023-01-13T05:30:04.652Z,4.72
2023-01-13T05:33:18.181Z,4.53
2023-01-13T05:36:29.174Z,3.88
2023-01-13T05:39:52.591Z,5.00
2023-01-13T05:43:20.187Z,5.47
2023-01-13T05:46:24.796Z,4.20
2023-01-13T05:49:29.308Z,4.55
2023-01-13T05:52:33.845Z,5.15
2023-01-13T05:55:40.997Z,3.88
2023-01-13T05:58:46.065Z,5.25
2023-01-13T06:01:50.754Z,4.22
2023-01-13T06:04:56.342Z,4.95
2023-01-13T06:08:03.230Z,4.85
2023-01-13T06:11:08.006Z,5.28
2023-01-13T06:14:12.422Z,4.53
2023-01-13T06:17:17.084Z,3.47
2023-01-13T06:20:27.267Z,5.35
2023-01-13T06:23:35.038Z,4.70
2023-01-13T06:26:41.394Z,6.57
2023-01-13T06:29:45.839Z,5.65
2023-01-13T06:32:54.701Z,4.95
2023-01-13T06:36:06.021Z,5.20
2023-01-13T06:39:16.114Z,5.32
2023-01-13T06:42:41.865Z,4.47
2023-01-13T06:45:56.534Z,5.55
2023-01-13T06:49:26.920Z,3.70
2023-01-13T06:52:46.443Z,4.78
2023-01-13T06:56:22.658Z,4.30
2023-01-13T06:59:40.678Z,3.72
2023-01-13T07:03:14.137Z,5.00
2023-01-13T07:06:28.651Z,4.88
2023-01-13T14:00:11.407Z,2.78
2023-01-13T14:07:26.542Z,2.42
2023-01-13T14:10:40.226Z,3.13
2023-01-13T14:13:47.391Z,1.63
2023-01-13T14:16:56.116Z,2.95
2023-01-13T14:20:05.861Z,1.67
2023-01-13T14:23:40.093Z,2.00
2023-01-13T14:27:24.718Z,2.22
2023-01-13T14:30:35.667Z,1.70
2023-01-13T14:34:32.126Z,2.30
2023-01-13T14:37:56.627Z,2.47
2023-01-13T14:41:41.555Z,3.38
2023-01-13T14:45:02.673Z,4.78
2023-01-13T14:48:27.112Z,2.58
2023-01-13T14:51:50.474Z,2.10
2023-01-13T14:55:36.699Z,2.95
2023-01-13T14:59:44.633Z,2.10
2023-01-13T15:03:53.128Z,2.00
2023-01-13T15:12:18.285Z,2.08
2023-01-13T15:15:37.613Z,2.08
2023-01-13T15:26:44.846Z,2.88
2023-01-13T16:17:15.139Z,2.63
2023-01-13T16:20:36.711Z,4.27
2023-01-13T16:24:00.882Z,1.75
2023-01-13T16:28:11.781Z,2.70
2023-01-13T16:37:17.667Z,2.20
2023-01-13T16:57:28.681Z,2.60
2023-01-13T17:01:25.870Z,2.92
2023-01-13T17:04:39.153Z,3.78
2023-01-13T17:11:48.131Z,4.18
2023-01-13T17:24:58.831Z,3.88
2023-01-13T17:32:56.684Z,4.93
2023-01-13T17:40:41.120Z,4.50
2023-01-13T17:44:11.545Z,5.05
2023-01-13T17:48:20.892Z,4.90
2023-01-13T17:59:41.315Z,3.60
2023-01-13T18:03:01.749Z,3.67
2023-01-13T18:06:29.323Z,4.43
2023-01-13T18:13:45.913Z,3.55
2023-01-13T18:17:21.030Z,2.92
2023-01-13T18:20:53.904Z,2.50
2023-01-13T18:24:19.021Z,3.13
2023-01-13T18:27:38.872Z,2.70
2023-01-13T18:31:12.834Z,2.85
2023-01-13T18:34:23.398Z,2.95
2023-01-13T18:37:59.176Z,2.33
2023-01-13T18:41:31.739Z,2.45
2023-01-13T18:44:50.763Z,3.50
2023-01-13T18:48:22.837Z,2.80
2023-01-13T18:51:32.995Z,3.65
2023-01-13T18:54:40.745Z,4.20
2023-01-13T18:58:04.643Z,6.20
2023-01-13T19:06:20.721Z,5.22
2023-01-13T19:14:49.357Z,4.72
2023-01-13T19:18:31.010Z,4.10
2023-01-13T19:26:40.250Z,4.47
2023-01-13T19:30:03.609Z,5.78
2023-01-13T19:33:14.459Z,4.90
2023-01-13T19:36:29.767Z,5.40
2023-01-13T19:39:38.425Z,4.20
2023-01-13T19:43:17.130Z,4.53
2023-01-13T19:46:31.342Z,3.78
2023-01-13T19:49:41.897Z,5.10
2023-01-13T19:52:49.371Z,3.78
2023-01-13T19:55:57.669Z,4.22
2023-01-13T19:59:19.541Z,3.03
2023-01-13T20:02:31.979Z,3.80
2023-01-13T20:05:46.281Z,3.58
2023-01-13T20:09:02.109Z,3.28
2023-01-13T20:16:27.304Z,3.83
2023-01-13T20:20:19.551Z,5.07
2023-01-13T20:24:05.606Z,4.40
2023-01-13T20:27:55.675Z,4.95
2023-01-13T20:31:22.840Z,4.43
2023-01-13T20:40:05.483Z,4.55
2023-01-13T20:59:32.792Z,4.68
2023-01-13T21:03:01.772Z,4.82
2023-01-13T21:06:47.564Z,3.40
2023-01-13T21:10:28.477Z,3.78
2023-01-13T21:14:02.456Z,4.38
2023-01-13T21:18:04.853Z,5.05
2023-01-13T21:21:35.272Z,5.93
2023-01-13T21:24:50.346Z,4.75
2023-01-13T21:28:21.968Z,4.60
2023-01-13T21:31:48.868Z,3.78
2023-01-13T21:38:47.640Z,4.70
2023-01-13T21:42:50.229Z,7.25
2023-01-13T21:46:33.140Z,5.00
2023-01-13T21:54:38.016Z,4.50
2023-01-13T21:58:35.785Z,3.55
2023-01-13T22:02:23.240Z,3.83
2023-01-13T22:05:38.224Z,4.18
2023-01-13T22:09:12.821Z,3.47
2023-01-13T22:13:26.964Z,4.05
2023-01-13T22:20:45.918Z,3.33
2023-01-13T22:23:59.390Z,3.00
2023-01-13T22:27:26.094Z,3.35
2023-01-13T22:30:37.944Z,3.00
2023-01-13T22:38:48.687Z,3.08
2023-01-13T22:42:33.044Z,3.92
2023-01-13T22:58:43.347Z,3.38
2023-01-13T23:02:36.486Z,2.88
